Time,TemperatureF,DewpointF,PressureIn,WindDirection,WindDirectionDegrees,WindSpeedMPH,WindSpeedGustMPH,Humidity,HourlyPrecipIn,Conditions,Clouds,dailyrainin,SoftwareType,DateUTC
2013-12-10 00:02:00,23.3,6.1,29.53,North,-999,-999.0,0.0,47,0.00,,,0.00,LWC V2.10 B1813,2013-12-10 07:02:00,
2013-12-10 00:07:00,23.1,5.9,29.53,North,-999,-999.0,0.0,47,0.00,,,0.00,LWC V2.10 B1813,2013-12-10 07:07:00,
2013-12-10 00:12:00,23.0,5.8,29.53,North,-999,-999.0,0.0,47,0.00,,,0.00,LWC V2.10 B1813,2013-12-10 07:12:00,
2013-12-10 00:17:00,23.3,6.5,29.53,North,-999,-999.0,0.0,48,0.00,,,0.00,LWC V2.10 B1813,2013-12-10 07:17:00,
2013-12-10 00:22:00,23.0,6.3,29.53,North,-999,-999.0,0.0,48,0.00,,,0.00,LWC V2.10 B1813,2013-12-10 07:22:00,
2013-12-10 00:27:00,23.1,6.8,29.53,North,-999,-999.0,0.0,49,0.00,,,0.00,LWC V2.10 B1813,2013-12-10 07:27:00,
2013-12-10 00:32:00,23.1,6.8,29.53,North,-999,-999.0,0.0,49,0.00,,,0.00,LWC V2.10 B1813,2013-12-10 07:32:00,
2013-12-10 00:37:00,23.1,6.8,29.53,North,-999,-999.0,0.0,49,0.00,,,0.00,LWC V2.10 B1813,2013-12-10 07:37:00,
2013-12-10 00:42:00,23.3,6.1,29.53,North,-999,-999.0,0.0,47,0.00,,,0.00,LWC V2.10 B1813,2013-12-10 07:42:00,
2013-12-10 00:47:00,23.2,6.0,29.53,North,-999,-999.0,0.0,47,0.00,,,0.00,LWC V2.10 B1813,2013-12-10 07:47:00,
2013-12-10 00:52:00,23.3,6.1,29.53,North,-999,-999.0,0.0,47,0.00,,,0.00,LWC V2.10 B1813,2013-12-10 07:52:00,
2013-12-10 00:57:00,23.2,6.0,29.53,North,-999,-999.0,0.0,47,0.00,,,0.00,LWC V2.10 B1813,2013-12-10 07:57:00,
2013-12-10 01:02:00,23.0,5.8,29.53,North,-999,-999.0,0.0,47,0.00,,,0.00,LWC V2.10 B1813,2013-12-10 08:02:00,
2013-12-10 01:07:00,23.0,6.3,29.53,North,-999,-999.0,0.0,48,0.00,,,0.00,LWC V2.10 B1813,2013-12-10 08:07:00,
2013-12-10 01:12:00,22.9,6.2,29.53,North,-999,-999.0,0.0,48,0.00,,,0.00,LWC V2.10 B1813,2013-12-10 08:12:00,
2013-12-10 01:17:00,22.7,6.0,29.53,North,-999,-999.0,0.0,48,0.00,,,0.00,LWC V2.10 B1813,2013-12-10 08:17:00,
2013-12-10 01:22:00,22.7,6.4,29.53,North,-999,-999.0,0.0,49,0.00,,,0.00,LWC V2.10 B1813,2013-12-10 08:22:00,
2013-12-10 01:27:00,22.7,6.4,29.53,North,-999,-999.0,0.0,49,0.00,,,0.00,LWC V2.10 B1813,2013-12-10 08:27:00,
2013-12-10 01:32:00,22.7,6.4,29.53,North,-999,-999.0,0.0,49,0.00,,,0.00,LWC V2.10 B1813,2013-12-10 08:32:00,
2013-12-10 01:37:00,22.6,6.4,29.53,North,-999,-999.0,0.0,49,0.00,,,0.00,LWC V2.10 B1813,2013-12-10 08:37:00,
2013-12-10 01:42:00,22.6,6.4,29.53,North,-999,-999.0,0.0,49,0.00,,,0.00,LWC V2.10 B1813,2013-12-10 08:42:00,
2013-12-10 01:47:00,22.5,6.7,29.53,North,-999,-999.0,0.0,50,0.00,,,0.00,LWC V2.10 B1813,2013-12-10 08:47:00,
2013-12-10 01:52:00,22.6,6.4,29.53,North,-999,-999.0,0.0,49,0.00,,,0.00,LWC V2.10 B1813,2013-12-10 08:52:00,
2013-12-10 01:57:00,22.5,5.8,29.53,North,-999,-999.0,0.0,48,0.00,,,0.00,LWC V2.10 B1813,2013-12-10 08:57:00,
2013-12-10 02:02:00,22.5,5.3,29.53,North,-999,-999.0,0.0,47,0.00,,,0.00,LWC V2.10 B1813,2013-12-10 09:02:00,
2013-12-10 02:04:00,22.6,5.4,29.53,North,-999,-999.0,0.0,47,0.00,,,0.00,LWC V2.10 B1813,2013-12-10 09:04:00,
2013-12-10 02:09:00,22.7,5.1,29.53,North,-999,-999.0,0.0,46,0.00,,,0.00,LWC V2.10 B1813,2013-12-10 09:09:00,
2013-12-10 02:14:00,22.8,5.6,29.53,North,-999,-999.0,0.0,47,0.00,,,0.00,LWC V2.10 B1813,2013-12-10 09:14:00,
2013-12-10 02:19:00,22.8,5.2,29.53,North,-999,-999.0,0.0,46,0.00,,,0.00,LWC V2.10 B1813,2013-12-10 09:19:00,
2013-12-10 02:24:00,22.7,5.1,29.53,North,-999,-999.0,0.0,46,0.00,,,0.00,LWC V2.10 B1813,2013-12-10 09:24:00,
2013-12-10 02:29:00,22.8,5.6,29.53,North,-999,-999.0,0.0,47,0.00,,,0.00,LWC V2.10 B1813,2013-12-10 09:29:00,
2013-12-10 02:34:00,22.7,5.1,29.53,North,-999,-999.0,0.0,46,0.00,,,0.00,LWC V2.10 B1813,2013-12-10 09:34:00,
2013-12-10 02:39:00,22.6,5.0,29.53,North,-999,-999.0,0.0,46,0.00,,,0.00,LWC V2.10 B1813,2013-12-10 09:39:00,
2013-12-10 02:44:00,22.6,4.5,29.53,North,-999,-999.0,0.0,45,0.00,,,0.00,LWC V2.10 B1813,2013-12-10 09:44:00,
2013-12-10 02:49:00,22.6,4.5,29.53,North,-999,-999.0,0.0,45,0.00,,,0.00,LWC V2.10 B1813,2013-12-10 09:49:00,
2013-12-10 02:54:00,22.7,4.6,29.53,North,-999,-999.0,0.0,45,0.00,,,0.00,LWC V2.10 B1813,2013-12-10 09:54:00,
2013-12-10 02:59:00,22.5,2.9,29.53,North,-999,-999.0,0.0,42,0.00,,,0.00,LWC V2.10 B1813,2013-12-10 09:59:00,
2013-12-10 03:04:00,22.5,3.9,29.53,North,-999,-999.0,0.0,44,0.00,,,0.00,LWC V2.10 B1813,2013-12-10 10:04:00,
2013-12-10 03:09:00,22.5,3.9,29.53,North,-999,-999.0,0.0,44,0.00,,,0.00,LWC V2.10 B1813,2013-12-10 10:09:00,
2013-12-10 03:14:00,22.4,3.3,29.53,North,-999,-999.0,0.0,43,0.00,,,0.00,LWC V2.10 B1813,2013-12-10 10:14:00,
2013-12-10 03:19:00,22.4,3.8,29.53,North,-999,-999.0,0.0,44,0.00,,,0.00,LWC V2.10 B1813,2013-12-10 10:19:00,
2013-12-10 03:24:00,22.3,3.7,29.53,North,-999,-999.0,0.0,44,0.00,,,0.00,LWC V2.10 B1813,2013-12-10 10:24:00,
2013-12-10 03:29:00,22.3,3.2,29.53,North,-999,-999.0,0.0,43,0.00,,,0.00,LWC V2.10 B1813,2013-12-10 10:29:00,
2013-12-10 03:34:00,22.3,3.2,29.53,North,-999,-999.0,0.0,43,0.00,,,0.00,LWC V2.10 B1813,2013-12-10 10:34:00,
2013-12-10 03:39:00,22.2,2.6,29.53,North,-999,-999.0,0.0,42,0.00,,,0.00,LWC V2.10 B1813,2013-12-10 10:39:00,
2013-12-10 03:44:00,22.2,2.6,29.53,North,-999,-999.0,0.0,42,0.00,,,0.00,LWC V2.10 B1813,2013-12-10 10:44:00,
2013-12-10 03:49:00,22.2,3.6,29.53,North,-999,-999.0,0.0,44,0.00,,,0.00,LWC V2.10 B1813,2013-12-10 10:49:00,
2013-12-10 03:54:00,22.2,3.1,29.53,North,-999,-999.0,0.0,43,0.00,,,0.00,LWC V2.10 B1813,2013-12-10 10:54:00,
2013-12-10 03:59:00,22.3,3.2,29.53,North,-999,-999.0,0.0,43,0.00,,,0.00,LWC V2.10 B1813,2013-12-10 10:59:00,
2013-12-10 04:04:00,22.2,3.1,29.53,North,-999,-999.0,0.0,43,0.00,,,0.00,LWC V2.10 B1813,2013-12-10 11:04:00,
2013-12-10 04:09:00,22.0,3.0,29.53,North,-999,-999.0,0.0,43,0.00,,,0.00,LWC V2.10 B1813,2013-12-10 11:09:00,
2013-12-10 04:14:00,21.9,2.9,29.53,North,-999,-999.0,0.0,43,0.00,,,0.00,LWC V2.10 B1813,2013-12-10 11:14:00,
2013-12-10 04:19:00,21.9,2.9,29.53,North,-999,-999.0,0.0,43,0.00,,,0.00,LWC V2.10 B1813,2013-12-10 11:19:00,
2013-12-10 04:24:00,22.1,3.6,29.53,North,-999,-999.0,0.0,44,0.00,,,0.00,LWC V2.10 B1813,2013-12-10 11:24:00,
2013-12-10 04:29:00,21.9,3.4,29.53,North,-999,-999.0,0.0,44,0.00,,,0.00,LWC V2.10 B1813,2013-12-10 11:29:00,
2013-12-10 04:34:00,21.9,3.4,29.53,North,-999,-999.0,0.0,44,0.00,,,0.00,LWC V2.10 B1813,2013-12-10 11:34:00,
2013-12-10 04:39:00,21.8,2.8,29.53,North,-999,-999.0,0.0,43,0.00,,,0.00,LWC V2.10 B1813,2013-12-10 11:39:00,
2013-12-10 04:44:00,21.8,3.3,29.53,North,-999,-999.0,0.0,44,0.00,,,0.00,LWC V2.10 B1813,2013-12-10 11:44:00,
2013-12-10 04:49:00,21.7,2.7,29.53,North,-999,-999.0,0.0,43,0.00,,,0.00,LWC V2.10 B1813,2013-12-10 11:49:00,
2013-12-10 04:54:00,21.6,3.6,29.53,North,-999,-999.0,0.0,45,0.00,,,0.00,LWC V2.10 B1813,2013-12-10 11:54:00,
2013-12-10 04:59:00,21.6,4.1,29.53,North,-999,-999.0,0.0,46,0.00,,,0.00,LWC V2.10 B1813,2013-12-10 11:59:00,
2013-12-10 05:04:00,21.5,3.0,29.53,North,-999,-999.0,0.0,44,0.00,,,0.00,LWC V2.10 B1813,2013-12-10 12:04:00,
2013-12-10 05:09:00,21.4,2.9,29.53,North,-999,-999.0,0.0,44,0.00,,,0.00,LWC V2.10 B1813,2013-12-10 12:09:00,
2013-12-10 05:14:00,21.3,2.8,29.53,North,-999,-999.0,0.0,44,0.00,,,0.00,LWC V2.10 B1813,2013-12-10 12:14:00,
2013-12-10 05:19:00,21.3,3.3,29.53,North,-999,-999.0,0.0,45,0.00,,,0.00,LWC V2.10 B1813,2013-12-10 12:19:00,
2013-12-10 05:24:00,21.2,3.2,29.53,North,-999,-999.0,0.0,45,0.00,,,0.00,LWC V2.10 B1813,2013-12-10 12:24:00,
2013-12-10 05:29:00,21.1,3.1,29.53,North,-999,-999.0,0.0,45,0.00,,,0.00,LWC V2.10 B1813,2013-12-10 12:29:00,
2013-12-10 05:34:00,21.2,3.7,29.53,North,-999,-999.0,0.0,46,0.00,,,0.00,LWC V2.10 B1813,2013-12-10 12:34:00,
2013-12-10 05:39:00,21.2,3.7,29.53,North,-999,-999.0,0.0,46,0.00,,,0.00,LWC V2.10 B1813,2013-12-10 12:39:00,
2013-12-10 05:44:00,21.1,3.6,29.53,North,-999,-999.0,0.0,46,0.00,,,0.00,LWC V2.10 B1813,2013-12-10 12:44:00,
2013-12-10 05:49:00,21.1,4.1,29.53,North,-999,-999.0,0.0,47,0.00,,,0.00,LWC V2.10 B1813,2013-12-10 12:49:00,
2013-12-10 05:54:00,21.0,4.0,29.53,North,-999,-999.0,0.0,47,0.00,,,0.00,LWC V2.10 B1813,2013-12-10 12:54:00,
2013-12-10 05:59:00,20.9,3.9,29.53,North,-999,-999.0,0.0,47,0.00,,,0.00,LWC V2.10 B1813,2013-12-10 12:59:00,
2013-12-10 06:04:00,20.9,4.3,29.53,North,-999,-999.0,0.0,48,0.00,,,0.00,LWC V2.10 B1813,2013-12-10 13:04:00,
2013-12-10 06:09:00,20.8,4.2,29.53,North,-999,-999.0,0.0,48,0.00,,,0.00,LWC V2.10 B1813,2013-12-10 13:09:00,
2013-12-10 06:14:00,20.6,4.5,29.53,North,-999,-999.0,0.0,49,0.00,,,0.00,LWC V2.10 B1813,2013-12-10 13:14:00,
2013-12-10 06:19:00,20.7,4.1,29.53,North,-999,-999.0,0.0,48,0.00,,,0.00,LWC V2.10 B1813,2013-12-10 13:19:00,
2013-12-10 06:24:00,20.5,4.0,29.53,North,-999,-999.0,0.0,48,0.00,,,0.00,LWC V2.10 B1813,2013-12-10 13:24:00,
2013-12-10 06:29:00,20.5,4.8,29.53,North,-999,-999.0,0.0,50,0.00,,,0.00,LWC V2.10 B1813,2013-12-10 13:29:00,
2013-12-10 06:34:00,20.4,4.3,29.53,North,-999,-999.0,0.0,49,0.00,,,0.00,LWC V2.10 B1813,2013-12-10 13:34:00,
2013-12-10 06:39:00,20.4,4.3,29.53,North,-999,-999.0,0.0,49,0.00,,,0.00,LWC V2.10 B1813,2013-12-10 13:39:00,
2013-12-10 06:44:00,20.3,4.2,29.53,North,-999,-999.0,0.0,49,0.00,,,0.00,LWC V2.10 B1813,2013-12-10 13:44:00,
2013-12-10 06:49:00,20.1,4.0,29.53,North,-999,-999.0,0.0,49,0.00,,,0.00,LWC V2.10 B1813,2013-12-10 13:49:00,
2013-12-10 06:54:00,20.0,4.4,29.53,North,-999,-999.0,0.0,50,0.00,,,0.00,LWC V2.10 B1813,2013-12-10 13:54:00,
2013-12-10 06:59:00,20.1,4.5,29.53,North,-999,-999.0,0.0,50,0.00,,,0.00,LWC V2.10 B1813,2013-12-10 13:59:00,
2013-12-10 07:04:00,20.1,4.5,29.53,North,-999,-999.0,0.0,50,0.00,,,0.00,LWC V2.10 B1813,2013-12-10 14:04:00,
2013-12-10 07:09:00,20.0,4.4,29.53,North,-999,-999.0,0.0,50,0.00,,,0.00,LWC V2.10 B1813,2013-12-10 14:09:00,
2013-12-10 07:14:00,19.8,4.6,29.53,North,-999,-999.0,0.0,51,0.00,,,0.00,LWC V2.10 B1813,2013-12-10 14:14:00,
2013-12-10 07:19:00,19.7,4.5,29.53,North,-999,-999.0,0.0,51,0.00,,,0.00,LWC V2.10 B1813,2013-12-10 14:19:00,
2013-12-10 07:24:00,19.9,4.7,29.53,North,-999,-999.0,0.0,51,0.00,,,0.00,LWC V2.10 B1813,2013-12-10 14:24:00,
2013-12-10 07:29:00,19.8,4.6,29.53,North,-999,-999.0,0.0,51,0.00,,,0.00,LWC V2.10 B1813,2013-12-10 14:29:00,
2013-12-10 07:34:00,20.0,4.8,29.53,North,-999,-999.0,0.0,51,0.00,,,0.00,LWC V2.10 B1813,2013-12-10 14:34:00,
2013-12-10 07:39:00,19.9,4.7,29.53,North,-999,-999.0,0.0,51,0.00,,,0.00,LWC V2.10 B1813,2013-12-10 14:39:00,
2013-12-10 07:44:00,20.0,5.2,29.53,North,-999,-999.0,0.0,52,0.00,,,0.00,LWC V2.10 B1813,2013-12-10 14:44:00,
2013-12-10 07:49:00,20.6,5.8,29.53,North,-999,-999.0,0.0,52,0.00,,,0.00,LWC V2.10 B1813,2013-12-10 14:49:00,
2013-12-10 07:54:00,20.8,5.6,29.53,North,-999,-999.0,0.0,51,0.00,,,0.00,LWC V2.10 B1813,2013-12-10 14:54:00,
2013-12-10 07:59:00,21.2,5.9,29.53,North,-999,-999.0,0.0,51,0.00,,,0.00,LWC V2.10 B1813,2013-12-10 14:59:00,
2013-12-10 08:04:00,21.2,5.5,29.53,North,-999,-999.0,0.0,50,0.00,,,0.00,LWC V2.10 B1813,2013-12-10 15:04:00,
2013-12-10 08:09:00,21.5,5.3,29.53,North,-999,-999.0,0.0,49,0.00,,,0.00,LWC V2.10 B1813,2013-12-10 15:09:00,
2013-12-10 08:14:00,21.6,5.4,29.53,North,-999,-999.0,0.0,49,0.00,,,0.00,LWC V2.10 B1813,2013-12-10 15:14:00,
2013-12-10 08:19:00,22.1,5.9,29.53,North,-999,-999.0,0.0,49,0.00,,,0.00,LWC V2.10 B1813,2013-12-10 15:19:00,
2013-12-10 08:24:00,22.2,6.0,29.53,North,-999,-999.0,0.0,49,0.00,,,0.00,LWC V2.10 B1813,2013-12-10 15:24:00,
2013-12-10 08:29:00,22.4,5.7,29.53,North,-999,-999.0,0.0,48,0.00,,,0.00,LWC V2.10 B1813,2013-12-10 15:29:00,
2013-12-10 08:34:00,22.8,5.6,29.53,North,-999,-999.0,0.0,47,0.00,,,0.00,LWC V2.10 B1813,2013-12-10 15:34:00,
2013-12-10 08:39:00,22.9,5.7,29.53,North,-999,-999.0,0.0,47,0.00,,,0.00,LWC V2.10 B1813,2013-12-10 15:39:00,
2013-12-10 08:44:00,23.1,5.9,29.53,North,-999,-999.0,0.0,47,0.00,,,0.00,LWC V2.10 B1813,2013-12-10 15:44:00,
2013-12-10 08:49:00,23.2,6.0,29.53,North,-999,-999.0,0.0,47,0.00,,,0.00,LWC V2.10 B1813,2013-12-10 15:49:00,
2013-12-10 08:54:00,23.3,5.1,29.53,North,-999,-999.0,0.0,45,0.00,,,0.00,LWC V2.10 B1813,2013-12-10 15:54:00,
2013-12-10 08:59:00,23.4,5.2,29.53,North,-999,-999.0,0.0,45,0.00,,,0.00,LWC V2.10 B1813,2013-12-10 15:59:00,
2013-12-10 09:04:00,23.6,4.9,29.53,North,-999,-999.0,0.0,44,0.00,,,0.00,LWC V2.10 B1813,2013-12-10 16:04:00,
2013-12-10 09:09:00,23.8,5.1,29.53,North,-999,-999.0,0.0,44,0.00,,,0.00,LWC V2.10 B1813,2013-12-10 16:09:00,
2013-12-10 09:14:00,24.0,4.8,29.53,North,-999,-999.0,0.0,43,0.00,,,0.00,LWC V2.10 B1813,2013-12-10 16:14:00,
2013-12-10 09:19:00,24.1,4.4,29.53,North,-999,-999.0,0.0,42,0.00,,,0.00,LWC V2.10 B1813,2013-12-10 16:19:00,
2013-12-10 09:24:00,24.1,4.9,29.53,North,-999,-999.0,0.0,43,0.00,,,0.00,LWC V2.10 B1813,2013-12-10 16:24:00,
2013-12-10 09:29:00,24.3,5.1,29.53,North,-999,-999.0,0.0,43,0.00,,,0.00,LWC V2.10 B1813,2013-12-10 16:29:00,
2013-12-10 09:34:00,24.5,4.7,29.53,North,-999,-999.0,0.0,42,0.00,,,0.00,LWC V2.10 B1813,2013-12-10 16:34:00,
2013-12-10 09:39:00,24.7,4.9,29.53,North,-999,-999.0,0.0,42,0.00,,,0.00,LWC V2.10 B1813,2013-12-10 16:39:00,
2013-12-10 09:44:00,24.9,5.1,29.53,North,-999,-999.0,0.0,42,0.00,,,0.00,LWC V2.10 B1813,2013-12-10 16:44:00,
2013-12-10 09:49:00,25.2,5.9,29.53,North,-999,-999.0,0.0,43,0.00,,,0.00,LWC V2.10 B1813,2013-12-10 16:49:00,
2013-12-10 09:54:00,25.4,5.5,29.53,North,-999,-999.0,0.0,42,0.00,,,0.00,LWC V2.10 B1813,2013-12-10 16:54:00,
2013-12-10 09:59:00,25.8,6.4,29.53,North,-999,-999.0,0.0,43,0.00,,,0.00,LWC V2.10 B1813,2013-12-10 16:59:00,
2013-12-10 10:04:00,26.1,6.7,29.53,North,-999,-999.0,0.0,43,0.00,,,0.00,LWC V2.10 B1813,2013-12-10 17:04:00,
2013-12-10 10:09:00,26.3,5.8,29.53,North,-999,-999.0,0.0,41,0.00,,,0.00,LWC V2.10 B1813,2013-12-10 17:09:00,
2013-12-10 10:14:00,26.8,6.8,29.53,North,-999,-999.0,0.0,42,0.00,,,0.00,LWC V2.10 B1813,2013-12-10 17:14:00,
2013-12-10 10:19:00,26.9,5.8,29.53,North,-999,-999.0,0.0,40,0.00,,,0.00,LWC V2.10 B1813,2013-12-10 17:19:00,
2013-12-10 10:24:00,27.2,7.2,29.53,North,-999,-999.0,0.0,42,0.00,,,0.00,LWC V2.10 B1813,2013-12-10 17:24:00,
2013-12-10 10:29:00,27.4,6.8,29.53,North,-999,-999.0,0.0,41,0.00,,,0.00,LWC V2.10 B1813,2013-12-10 17:29:00,
2013-12-10 10:34:00,27.5,5.8,29.53,North,-999,-999.0,0.0,39,0.00,,,0.00,LWC V2.10 B1813,2013-12-10 17:34:00,
2013-12-10 10:39:00,27.6,5.9,29.53,North,-999,-999.0,0.0,39,0.00,,,0.00,LWC V2.10 B1813,2013-12-10 17:39:00,
2013-12-10 10:44:00,27.7,6.0,29.53,North,-999,-999.0,0.0,39,0.00,,,0.00,LWC V2.10 B1813,2013-12-10 17:44:00,
2013-12-10 10:49:00,27.8,6.1,29.53,North,-999,-999.0,0.0,39,0.00,,,0.00,LWC V2.10 B1813,2013-12-10 17:49:00,
2013-12-10 10:54:00,27.8,5.5,29.53,North,-999,-999.0,0.0,38,0.00,,,0.00,LWC V2.10 B1813,2013-12-10 17:54:00,
2013-12-10 10:59:00,28.1,6.4,29.53,North,-999,-999.0,0.0,39,0.00,,,0.00,LWC V2.10 B1813,2013-12-10 17:59:00,
2013-12-10 11:04:00,28.1,5.2,29.53,North,-999,-999.0,0.0,37,0.00,,,0.00,LWC V2.10 B1813,2013-12-10 18:04:00,
2013-12-10 11:09:00,28.4,6.1,29.53,North,-999,-999.0,0.0,38,0.00,,,0.00,LWC V2.10 B1813,2013-12-10 18:09:00,
2013-12-10 11:14:00,28.6,5.7,29.53,North,-999,-999.0,0.0,37,0.00,,,0.00,LWC V2.10 B1813,2013-12-10 18:14:00,
2013-12-10 11:19:00,28.8,5.8,29.53,North,-999,-999.0,0.0,37,0.00,,,0.00,LWC V2.10 B1813,2013-12-10 18:19:00,
2013-12-10 11:24:00,28.8,5.8,29.53,North,-999,-999.0,0.0,37,0.00,,,0.00,LWC V2.10 B1813,2013-12-10 18:24:00,
2013-12-10 11:29:00,29.0,5.4,29.53,North,-999,-999.0,0.0,36,0.00,,,0.00,LWC V2.10 B1813,2013-12-10 18:29:00,
2013-12-10 11:34:00,29.2,6.2,29.53,North,-999,-999.0,0.0,37,0.00,,,0.00,LWC V2.10 B1813,2013-12-10 18:34:00,
2013-12-10 11:39:00,29.3,5.7,29.53,North,-999,-999.0,0.0,36,0.00,,,0.00,LWC V2.10 B1813,2013-12-10 18:39:00,
2013-12-10 11:44:00,29.5,5.9,29.53,North,-999,-999.0,0.0,36,0.00,,,0.00,LWC V2.10 B1813,2013-12-10 18:44:00,
2013-12-10 11:49:00,29.5,6.5,29.53,North,-999,-999.0,0.0,37,0.00,,,0.00,LWC V2.10 B1813,2013-12-10 18:49:00,
2013-12-10 11:54:00,29.6,5.3,29.53,North,-999,-999.0,0.0,35,0.00,,,0.00,LWC V2.10 B1813,2013-12-10 18:54:00,
2013-12-10 11:59:00,29.6,5.3,29.53,North,-999,-999.0,0.0,35,0.00,,,0.00,LWC V2.10 B1813,2013-12-10 18:59:00,
2013-12-10 12:04:00,29.9,5.6,29.53,North,-999,-999.0,0.0,35,0.00,,,0.00,LWC V2.10 B1813,2013-12-10 19:04:00,
2013-12-10 12:09:00,30.1,5.2,29.53,North,-999,-999.0,0.0,34,0.00,,,0.00,LWC V2.10 B1813,2013-12-10 19:09:00,
2013-12-10 12:14:00,30.4,6.1,29.53,North,-999,-999.0,0.0,35,0.00,,,0.00,LWC V2.10 B1813,2013-12-10 19:14:00,
2013-12-10 12:19:00,30.5,4.9,29.53,North,-999,-999.0,0.0,33,0.00,,,0.00,LWC V2.10 B1813,2013-12-10 19:19:00,
2013-12-10 12:24:00,30.6,5.0,29.53,North,-999,-999.0,0.0,33,0.00,,,0.00,LWC V2.10 B1813,2013-12-10 19:24:00,
2013-12-10 12:29:00,30.7,5.7,29.53,North,-999,-999.0,0.0,34,0.00,,,0.00,LWC V2.10 B1813,2013-12-10 19:29:00,
2013-12-10 12:34:00,30.9,5.9,29.53,North,-999,-999.0,0.0,34,0.00,,,0.00,LWC V2.10 B1813,2013-12-10 19:34:00,
2013-12-10 12:39:00,31.0,6.0,29.53,North,-999,-999.0,0.0,34,0.00,,,0.00,LWC V2.10 B1813,2013-12-10 19:39:00,
2013-12-10 12:44:00,31.3,6.2,29.53,North,-999,-999.0,0.0,34,0.00,,,0.00,LWC V2.10 B1813,2013-12-10 19:44:00,
2013-12-10 12:49:00,31.4,5.7,29.53,North,-999,-999.0,0.0,33,0.00,,,0.00,LWC V2.10 B1813,2013-12-10 19:49:00,
2013-12-10 12:54:00,31.6,6.5,29.53,North,-999,-999.0,0.0,34,0.00,,,0.00,LWC V2.10 B1813,2013-12-10 19:54:00,
2013-12-10 12:59:00,31.8,6.7,29.53,North,-999,-999.0,0.0,34,0.00,,,0.00,LWC V2.10 B1813,2013-12-10 19:59:00,
2013-12-10 13:04:00,31.8,6.0,29.53,North,-999,-999.0,0.0,33,0.00,,,0.00,LWC V2.10 B1813,2013-12-10 20:04:00,
2013-12-10 13:09:00,32.0,6.2,29.53,North,-999,-999.0,0.0,33,0.00,,,0.00,LWC V2.10 B1813,2013-12-10 20:09:00,
2013-12-10 13:14:00,32.0,6.2,29.53,North,-999,-999.0,0.0,33,0.00,,,0.00,LWC V2.10 B1813,2013-12-10 20:14:00,
2013-12-10 13:19:00,32.2,6.4,29.53,North,-999,-999.0,0.0,33,0.00,,,0.00,LWC V2.10 B1813,2013-12-10 20:19:00,
2013-12-10 13:24:00,32.3,6.5,29.53,North,-999,-999.0,0.0,33,0.00,,,0.00,LWC V2.10 B1813,2013-12-10 20:24:00,
2013-12-10 13:29:00,32.3,6.5,29.53,North,-999,-999.0,0.0,33,0.00,,,0.00,LWC V2.10 B1813,2013-12-10 20:29:00,
2013-12-10 13:34:00,32.2,6.4,29.53,North,-999,-999.0,0.0,33,0.00,,,0.00,LWC V2.10 B1813,2013-12-10 20:34:00,
2013-12-10 13:39:00,32.3,6.5,29.53,North,-999,-999.0,0.0,33,0.00,,,0.00,LWC V2.10 B1813,2013-12-10 20:39:00,
2013-12-10 13:44:00,32.4,6.5,29.53,North,-999,-999.0,0.0,33,0.00,,,0.00,LWC V2.10 B1813,2013-12-10 20:44:00,
2013-12-10 13:49:00,32.6,7.4,29.53,North,-999,-999.0,0.0,34,0.00,,,0.00,LWC V2.10 B1813,2013-12-10 20:49:00,
2013-12-10 13:54:00,32.9,7.6,29.53,North,-999,-999.0,0.0,34,0.00,,,0.00,LWC V2.10 B1813,2013-12-10 20:54:00,
2013-12-10 13:59:00,33.5,7.5,29.53,North,-999,-999.0,0.0,33,0.00,,,0.00,LWC V2.10 B1813,2013-12-10 20:59:00,
2013-12-10 14:04:00,33.7,7.7,29.53,North,-999,-999.0,0.0,33,0.00,,,0.00,LWC V2.10 B1813,2013-12-10 21:04:00,
2013-12-10 14:09:00,33.9,7.9,29.53,North,-999,-999.0,0.0,33,0.00,,,0.00,LWC V2.10 B1813,2013-12-10 21:09:00,
2013-12-10 14:14:00,34.0,8.0,29.53,North,-999,-999.0,0.0,33,0.00,,,0.00,LWC V2.10 B1813,2013-12-10 21:14:00,
2013-12-10 14:19:00,33.9,7.9,29.53,North,-999,-999.0,0.0,33,0.00,,,0.00,LWC V2.10 B1813,2013-12-10 21:19:00,
2013-12-10 14:24:00,33.6,7.6,29.53,North,-999,-999.0,0.0,33,0.00,,,0.00,LWC V2.10 B1813,2013-12-10 21:24:00,
2013-12-10 14:29:00,33.6,7.6,29.53,North,-999,-999.0,0.0,33,0.00,,,0.00,LWC V2.10 B1813,2013-12-10 21:29:00,
2013-12-10 14:34:00,33.5,8.2,29.53,North,-999,-999.0,0.0,34,0.00,,,0.00,LWC V2.10 B1813,2013-12-10 21:34:00,
2013-12-10 14:39:00,33.5,8.2,29.53,North,-999,-999.0,0.0,34,0.00,,,0.00,LWC V2.10 B1813,2013-12-10 21:39:00,
2013-12-10 14:44:00,33.6,8.3,29.53,North,-999,-999.0,0.0,34,0.00,,,0.00,LWC V2.10 B1813,2013-12-10 21:44:00,
2013-12-10 14:49:00,33.6,7.6,29.53,North,-999,-999.0,0.0,33,0.00,,,0.00,LWC V2.10 B1813,2013-12-10 21:49:00,
2013-12-10 14:54:00,33.8,9.1,29.53,North,-999,-999.0,0.0,35,0.00,,,0.00,LWC V2.10 B1813,2013-12-10 21:54:00,
2013-12-10 14:59:00,33.7,8.4,29.53,North,-999,-999.0,0.0,34,0.00,,,0.00,LWC V2.10 B1813,2013-12-10 21:59:00,
2013-12-10 15:04:00,33.8,7.8,29.53,North,-999,-999.0,0.0,33,0.00,,,0.00,LWC V2.10 B1813,2013-12-10 22:04:00,
2013-12-10 15:09:00,33.8,7.8,29.53,North,-999,-999.0,0.0,33,0.00,,,0.00,LWC V2.10 B1813,2013-12-10 22:09:00,
2013-12-10 15:14:00,33.8,8.4,29.53,North,-999,-999.0,0.0,34,0.00,,,0.00,LWC V2.10 B1813,2013-12-10 22:14:00,
2013-12-10 15:19:00,33.7,7.7,29.53,North,-999,-999.0,0.0,33,0.00,,,0.00,LWC V2.10 B1813,2013-12-10 22:19:00,
2013-12-10 15:24:00,33.7,7.7,29.53,North,-999,-999.0,0.0,33,0.00,,,0.00,LWC V2.10 B1813,2013-12-10 22:24:00,
2013-12-10 15:29:00,33.7,8.4,29.53,North,-999,-999.0,0.0,34,0.00,,,0.00,LWC V2.10 B1813,2013-12-10 22:29:00,
2013-12-10 15:34:00,33.7,9.6,29.53,North,-999,-999.0,0.0,36,0.00,,,0.00,LWC V2.10 B1813,2013-12-10 22:34:00,
2013-12-10 15:39:00,33.7,9.6,29.53,North,-999,-999.0,0.0,36,0.00,,,0.00,LWC V2.10 B1813,2013-12-10 22:39:00,
2013-12-10 15:44:00,33.7,10.2,29.53,North,-999,-999.0,0.0,37,0.00,,,0.00,LWC V2.10 B1813,2013-12-10 22:44:00,
2013-12-10 15:49:00,33.8,9.7,29.53,North,-999,-999.0,0.0,36,0.00,,,0.00,LWC V2.10 B1813,2013-12-10 22:49:00,
2013-12-10 15:54:00,33.8,9.7,29.53,North,-999,-999.0,0.0,36,0.00,,,0.00,LWC V2.10 B1813,2013-12-10 22:54:00,
2013-12-10 15:59:00,33.8,10.9,29.53,North,-999,-999.0,0.0,38,0.00,,,0.00,LWC V2.10 B1813,2013-12-10 22:59:00,
2013-12-10 16:04:00,33.7,10.2,29.53,North,-999,-999.0,0.0,37,0.00,,,0.00,LWC V2.10 B1813,2013-12-10 23:04:00,
2013-12-10 16:09:00,33.7,10.8,29.53,North,-999,-999.0,0.0,38,0.00,,,0.00,LWC V2.10 B1813,2013-12-10 23:09:00,
2013-12-10 16:14:00,33.7,10.8,29.53,North,-999,-999.0,0.0,38,0.00,,,0.00,LWC V2.10 B1813,2013-12-10 23:14:00,
2013-12-10 16:19:00,33.6,10.7,29.53,North,-999,-999.0,0.0,38,0.00,,,0.00,LWC V2.10 B1813,2013-12-10 23:19:00,
2013-12-10 16:24:00,33.4,10.6,29.53,North,-999,-999.0,0.0,38,0.00,,,0.00,LWC V2.10 B1813,2013-12-10 23:24:00,
2013-12-10 16:29:00,33.2,11.5,29.53,North,-999,-999.0,0.0,40,0.00,,,0.00,LWC V2.10 B1813,2013-12-10 23:29:00,
2013-12-10 16:34:00,33.1,11.4,29.53,North,-999,-999.0,0.0,40,0.00,,,0.00,LWC V2.10 B1813,2013-12-10 23:34:00,
2013-12-10 16:39:00,33.0,11.9,29.53,North,-999,-999.0,0.0,41,0.00,,,0.00,LWC V2.10 B1813,2013-12-10 23:39:00,
2013-12-10 16:44:00,32.6,11.5,29.53,North,-999,-999.0,0.0,41,0.00,,,0.00,LWC V2.10 B1813,2013-12-10 23:44:00,
2013-12-10 16:49:00,32.6,11.5,29.53,North,-999,-999.0,0.0,41,0.00,,,0.00,LWC V2.10 B1813,2013-12-10 23:49:00,
2013-12-10 16:54:00,32.5,11.4,29.53,North,-999,-999.0,0.0,41,0.00,,,0.00,LWC V2.10 B1813,2013-12-10 23:54:00,
2013-12-10 16:59:00,32.3,10.7,29.53,North,-999,-999.0,0.0,40,0.00,,,0.00,LWC V2.10 B1813,2013-12-10 23:59:00,
2013-12-10 17:04:00,32.1,10.5,29.53,North,-999,-999.0,0.0,40,0.00,,,0.00,LWC V2.10 B1813,2013-12-11 00:04:00,
2013-12-10 17:09:00,31.9,9.8,29.53,North,-999,-999.0,0.0,39,0.00,,,0.00,LWC V2.10 B1813,2013-12-11 00:09:00,
2013-12-10 17:14:00,31.9,9.2,29.53,North,-999,-999.0,0.0,38,0.00,,,0.00,LWC V2.10 B1813,2013-12-11 00:14:00,
2013-12-10 17:19:00,31.8,10.8,29.53,North,-999,-999.0,0.0,41,0.00,,,0.00,LWC V2.10 B1813,2013-12-11 00:19:00,
2013-12-10 17:24:00,31.8,11.4,29.53,North,-999,-999.0,0.0,42,0.00,,,0.00,LWC V2.10 B1813,2013-12-11 00:24:00,
2013-12-10 17:29:00,31.6,10.6,29.53,North,-999,-999.0,0.0,41,0.00,,,0.00,LWC V2.10 B1813,2013-12-11 00:29:00,
2013-12-10 17:34:00,31.6,12.7,29.53,North,-999,-999.0,0.0,45,0.00,,,0.00,LWC V2.10 B1813,2013-12-11 00:34:00,
2013-12-10 17:39:00,31.4,12.0,29.53,North,-999,-999.0,0.0,44,0.00,,,0.00,LWC V2.10 B1813,2013-12-11 00:39:00,
2013-12-10 17:44:00,31.3,12.9,29.53,North,-999,-999.0,0.0,46,0.00,,,0.00,LWC V2.10 B1813,2013-12-11 00:44:00,
2013-12-10 17:49:00,31.3,12.9,29.53,North,-999,-999.0,0.0,46,0.00,,,0.00,LWC V2.10 B1813,2013-12-11 00:49:00,
2013-12-10 17:54:00,31.2,13.3,29.53,North,-999,-999.0,0.0,47,0.00,,,0.00,LWC V2.10 B1813,2013-12-11 00:54:00,
2013-12-10 17:59:00,31.1,12.3,29.53,North,-999,-999.0,0.0,45,0.00,,,0.00,LWC V2.10 B1813,2013-12-11 00:59:00,
2013-12-10 18:04:00,31.0,13.6,29.53,North,-999,-999.0,0.0,48,0.00,,,0.00,LWC V2.10 B1813,2013-12-11 01:04:00,
2013-12-10 18:09:00,30.8,12.5,29.53,North,-999,-999.0,0.0,46,0.00,,,0.00,LWC V2.10 B1813,2013-12-11 01:09:00,
2013-12-10 18:14:00,30.7,12.4,29.53,North,-999,-999.0,0.0,46,0.00,,,0.00,LWC V2.10 B1813,2013-12-11 01:14:00,
2013-12-10 18:19:00,30.5,12.2,29.53,North,-999,-999.0,0.0,46,0.00,,,0.00,LWC V2.10 B1813,2013-12-11 01:19:00,
2013-12-10 18:24:00,30.5,12.2,29.53,North,-999,-999.0,0.0,46,0.00,,,0.00,LWC V2.10 B1813,2013-12-11 01:24:00,
2013-12-10 18:29:00,30.3,13.0,29.53,North,-999,-999.0,0.0,48,0.00,,,0.00,LWC V2.10 B1813,2013-12-11 01:29:00,
2013-12-10 18:34:00,30.2,12.4,29.53,North,-999,-999.0,0.0,47,0.00,,,0.00,LWC V2.10 B1813,2013-12-11 01:34:00,
2013-12-10 18:39:00,30.2,12.9,29.53,North,-999,-999.0,0.0,48,0.00,,,0.00,LWC V2.10 B1813,2013-12-11 01:39:00,
2013-12-10 18:44:00,30.3,13.0,29.53,North,-999,-999.0,0.0,48,0.00,,,0.00,LWC V2.10 B1813,2013-12-11 01:44:00,
2013-12-10 18:49:00,30.0,12.2,29.53,North,-999,-999.0,0.0,47,0.00,,,0.00,LWC V2.10 B1813,2013-12-11 01:49:00,
2013-12-10 18:54:00,29.9,12.1,29.53,North,-999,-999.0,0.0,47,0.00,,,0.00,LWC V2.10 B1813,2013-12-11 01:54:00,
2013-12-10 18:59:00,29.9,12.6,29.53,North,-999,-999.0,0.0,48,0.00,,,0.00,LWC V2.10 B1813,2013-12-11 01:59:00,
2013-12-10 19:04:00,29.8,12.5,29.53,North,-999,-999.0,0.0,48,0.00,,,0.00,LWC V2.10 B1813,2013-12-11 02:04:00,
2013-12-10 19:09:00,29.7,12.4,29.53,North,-999,-999.0,0.0,48,0.00,,,0.00,LWC V2.10 B1813,2013-12-11 02:09:00,
2013-12-10 19:14:00,29.5,12.3,29.53,North,-999,-999.0,0.0,48,0.00,,,0.00,LWC V2.10 B1813,2013-12-11 02:14:00,
2013-12-10 19:19:00,29.5,12.7,29.53,North,-999,-999.0,0.0,49,0.00,,,0.00,LWC V2.10 B1813,2013-12-11 02:19:00,
2013-12-10 19:24:00,29.4,13.1,29.53,North,-999,-999.0,0.0,50,0.00,,,0.00,LWC V2.10 B1813,2013-12-11 02:24:00,
2013-12-10 19:29:00,29.3,12.5,29.53,North,-999,-999.0,0.0,49,0.00,,,0.00,LWC V2.10 B1813,2013-12-11 02:29:00,
2013-12-10 19:34:00,29.2,12.9,29.53,North,-999,-999.0,0.0,50,0.00,,,0.00,LWC V2.10 B1813,2013-12-11 02:34:00,
2013-12-10 19:39:00,29.2,13.4,29.53,North,-999,-999.0,0.0,51,0.00,,,0.00,LWC V2.10 B1813,2013-12-11 02:39:00,
2013-12-10 19:44:00,29.1,12.4,29.53,North,-999,-999.0,0.0,49,0.00,,,0.00,LWC V2.10 B1813,2013-12-11 02:44:00,
2013-12-10 19:49:00,29.1,13.3,29.53,North,-999,-999.0,0.0,51,0.00,,,0.00,LWC V2.10 B1813,2013-12-11 02:49:00,
2013-12-10 19:54:00,29.0,13.2,29.53,North,-999,-999.0,0.0,51,0.00,,,0.00,LWC V2.10 B1813,2013-12-11 02:54:00,
2013-12-10 19:59:00,28.9,13.1,29.53,North,-999,-999.0,0.0,51,0.00,,,0.00,LWC V2.10 B1813,2013-12-11 02:59:00,
2013-12-10 20:04:00,28.8,12.5,29.53,North,-999,-999.0,0.0,50,0.00,,,0.00,LWC V2.10 B1813,2013-12-11 03:04:00,
2013-12-10 20:09:00,28.7,12.9,29.53,North,-999,-999.0,0.0,51,0.00,,,0.00,LWC V2.10 B1813,2013-12-11 03:09:00,
2013-12-10 20:14:00,28.7,12.9,29.53,North,-999,-999.0,0.0,51,0.00,,,0.00,LWC V2.10 B1813,2013-12-11 03:14:00,
2013-12-10 20:19:00,28.5,12.3,29.53,North,-999,-999.0,0.0,50,0.00,,,0.00,LWC V2.10 B1813,2013-12-11 03:19:00,
2013-12-10 20:24:00,28.4,12.6,29.53,North,-999,-999.0,0.0,51,0.00,,,0.00,LWC V2.10 B1813,2013-12-11 03:24:00,
2013-12-10 20:29:00,28.5,12.3,29.53,North,-999,-999.0,0.0,50,0.00,,,0.00,LWC V2.10 B1813,2013-12-11 03:29:00,
2013-12-10 20:34:00,28.4,12.2,29.53,North,-999,-999.0,0.0,50,0.00,,,0.00,LWC V2.10 B1813,2013-12-11 03:34:00,
2013-12-10 20:39:00,28.5,13.1,29.53,North,-999,-999.0,0.0,52,0.00,,,0.00,LWC V2.10 B1813,2013-12-11 03:39:00,
2013-12-10 20:44:00,28.3,12.1,29.53,North,-999,-999.0,0.0,50,0.00,,,0.00,LWC V2.10 B1813,2013-12-11 03:44:00,
2013-12-10 20:49:00,28.3,12.1,29.53,North,-999,-999.0,0.0,50,0.00,,,0.00,LWC V2.10 B1813,2013-12-11 03:49:00,
2013-12-10 20:54:00,28.3,12.1,29.53,North,-999,-999.0,0.0,50,0.00,,,0.00,LWC V2.10 B1813,2013-12-11 03:54:00,
2013-12-10 20:59:00,28.3,12.1,29.53,North,-999,-999.0,0.0,50,0.00,,,0.00,LWC V2.10 B1813,2013-12-11 03:59:00,
2013-12-10 21:04:00,28.1,12.3,29.53,North,-999,-999.0,0.0,51,0.00,,,0.00,LWC V2.10 B1813,2013-12-11 04:04:00,
2013-12-10 21:09:00,28.0,12.2,29.53,North,-999,-999.0,0.0,51,0.00,,,0.00,LWC V2.10 B1813,2013-12-11 04:09:00,
2013-12-10 21:14:00,27.9,12.1,29.53,North,-999,-999.0,0.0,51,0.00,,,0.00,LWC V2.10 B1813,2013-12-11 04:14:00,
2013-12-10 21:19:00,27.9,12.1,29.53,North,-999,-999.0,0.0,51,0.00,,,0.00,LWC V2.10 B1813,2013-12-11 04:19:00,
2013-12-10 21:24:00,27.9,12.1,29.53,North,-999,-999.0,0.0,51,0.00,,,0.00,LWC V2.10 B1813,2013-12-11 04:24:00,
2013-12-10 21:29:00,27.8,12.1,29.53,North,-999,-999.0,0.0,51,0.00,,,0.00,LWC V2.10 B1813,2013-12-11 04:29:00,
2013-12-10 21:34:00,27.8,12.1,29.53,North,-999,-999.0,0.0,51,0.00,,,0.00,LWC V2.10 B1813,2013-12-11 04:34:00,
2013-12-10 21:39:00,27.8,11.2,29.53,North,-999,-999.0,0.0,49,0.00,,,0.00,LWC V2.10 B1813,2013-12-11 04:39:00,
2013-12-10 21:44:00,27.7,12.0,29.53,North,-999,-999.0,0.0,51,0.00,,,0.00,LWC V2.10 B1813,2013-12-11 04:44:00,
2013-12-10 21:49:00,27.6,11.0,29.53,North,-999,-999.0,0.0,49,0.00,,,0.00,LWC V2.10 B1813,2013-12-11 04:49:00,
2013-12-10 21:54:00,27.5,10.9,29.53,North,-999,-999.0,0.0,49,0.00,,,0.00,LWC V2.10 B1813,2013-12-11 04:54:00,
2013-12-10 21:59:00,27.3,11.1,29.53,North,-999,-999.0,0.0,50,0.00,,,0.00,LWC V2.10 B1813,2013-12-11 04:59:00,
2013-12-10 22:01:00,27.3,10.7,29.53,North,-999,-999.0,0.0,49,0.00,,,0.00,LWC V2.10 B1813,2013-12-11 05:01:00,
2013-12-10 22:06:00,27.3,11.1,29.53,North,-999,-999.0,0.0,50,0.00,,,0.00,LWC V2.10 B1813,2013-12-11 05:06:00,
2013-12-10 22:11:00,27.2,11.1,29.53,North,-999,-999.0,0.0,50,0.00,,,0.00,LWC V2.10 B1813,2013-12-11 05:11:00,
2013-12-10 22:16:00,27.2,11.5,29.53,North,-999,-999.0,0.0,51,0.00,,,0.00,LWC V2.10 B1813,2013-12-11 05:16:00,
2013-12-10 22:21:00,26.9,10.8,29.53,North,-999,-999.0,0.0,50,0.00,,,0.00,LWC V2.10 B1813,2013-12-11 05:21:00,
2013-12-10 22:26:00,26.9,10.8,29.53,North,-999,-999.0,0.0,50,0.00,,,0.00,LWC V2.10 B1813,2013-12-11 05:26:00,
2013-12-10 22:31:00,27.0,11.3,29.53,North,-999,-999.0,0.0,51,0.00,,,0.00,LWC V2.10 B1813,2013-12-11 05:31:00,
2013-12-10 22:36:00,27.0,11.3,29.53,North,-999,-999.0,0.0,51,0.00,,,0.00,LWC V2.10 B1813,2013-12-11 05:36:00,
2013-12-10 22:41:00,26.8,11.1,29.53,North,-999,-999.0,0.0,51,0.00,,,0.00,LWC V2.10 B1813,2013-12-11 05:41:00,
2013-12-10 22:46:00,26.8,11.6,29.53,North,-999,-999.0,0.0,52,0.00,,,0.00,LWC V2.10 B1813,2013-12-11 05:46:00,
2013-12-10 22:51:00,26.7,11.5,29.53,North,-999,-999.0,0.0,52,0.00,,,0.00,LWC V2.10 B1813,2013-12-11 05:51:00,
2013-12-10 22:56:00,26.5,10.8,29.53,North,-999,-999.0,0.0,51,0.00,,,0.00,LWC V2.10 B1813,2013-12-11 05:56:00,
2013-12-10 23:01:00,26.4,10.8,29.53,North,-999,-999.0,0.0,51,0.00,,,0.00,LWC V2.10 B1813,2013-12-11 06:01:00,
2013-12-10 23:06:00,26.3,10.7,29.53,North,-999,-999.0,0.0,51,0.00,,,0.00,LWC V2.10 B1813,2013-12-11 06:06:00,
2013-12-10 23:11:00,26.3,10.7,29.53,North,-999,-999.0,0.0,51,0.00,,,0.00,LWC V2.10 B1813,2013-12-11 06:11:00,
2013-12-10 23:16:00,26.3,11.1,29.53,North,-999,-999.0,0.0,52,0.00,,,0.00,LWC V2.10 B1813,2013-12-11 06:16:00,
2013-12-10 23:21:00,26.4,11.2,29.53,North,-999,-999.0,0.0,52,0.00,,,0.00,LWC V2.10 B1813,2013-12-11 06:21:00,
2013-12-10 23:26:00,26.5,11.3,29.53,North,-999,-999.0,0.0,52,0.00,,,0.00,LWC V2.10 B1813,2013-12-11 06:26:00,
2013-12-10 23:31:00,26.5,10.8,29.53,North,-999,-999.0,0.0,51,0.00,,,0.00,LWC V2.10 B1813,2013-12-11 06:31:00,
2013-12-10 23:36:00,26.5,10.8,29.53,North,-999,-999.0,0.0,51,0.00,,,0.00,LWC V2.10 B1813,2013-12-11 06:36:00,
2013-12-10 23:41:00,26.4,10.8,29.53,North,-999,-999.0,0.0,51,0.00,,,0.00,LWC V2.10 B1813,2013-12-11 06:41:00,
2013-12-10 23:46:00,26.5,10.8,29.53,North,-999,-999.0,0.0,51,0.00,,,0.00,LWC V2.10 B1813,2013-12-11 06:46:00,
2013-12-10 23:51:00,26.3,10.2,29.53,North,-999,-999.0,0.0,50,0.00,,,0.00,LWC V2.10 B1813,2013-12-11 06:51:00,
2013-12-10 23:56:00,26.2,10.1,29.53,North,-999,-999.0,0.0,50,0.00,,,0.00,LWC V2.10 B1813,2013-12-11 06:56:00,